createdAt,value
2022-09-28T00:01:44.918Z,9.50
2022-09-28T00:04:55.454Z,9.50
2022-09-28T00:08:30.029Z,9.60
2022-09-28T00:11:33.003Z,9.40
2022-09-28T00:15:00.302Z,9.40
2022-09-28T00:18:00.829Z,9.50
2022-09-28T00:24:48.038Z,9.50
2022-09-28T00:27:47.333Z,9.50
2022-09-28T00:35:01.840Z,9.50
2022-09-28T00:37:53.886Z,9.50
2022-09-28T00:41:15.327Z,9.50
2022-09-28T00:44:48.355Z,9.50
2022-09-28T00:48:15.452Z,9.60
2022-09-28T00:51:09.127Z,9.60
2022-09-28T00:53:56.737Z,9.70
2022-09-28T00:56:47.411Z,9.70
2022-09-28T00:59:35.043Z,9.60
2022-09-28T01:08:31.973Z,9.60
2022-09-28T01:11:19.997Z,9.50
2022-09-28T01:14:10.703Z,9.60
2022-09-28T01:26:46.825Z,9.50
2022-09-28T01:30:17.179Z,9.50
2022-09-28T01:33:57.157Z,9.40
2022-09-28T01:37:49.761Z,9.20
2022-09-28T01:40:37.843Z,9.20
2022-09-28T01:43:36.286Z,9.10
2022-09-28T01:46:38.365Z,9.10
2022-09-28T01:49:38.650Z,9.10
2022-09-28T01:52:54.623Z,9.10
2022-09-28T01:56:00.106Z,9.10
2022-09-28T01:59:04.393Z,9.10
2022-09-28T02:02:31.009Z,9.10
2022-09-28T02:05:33.150Z,9.20
2022-09-28T02:08:40.109Z,9.20
2022-09-28T02:11:45.741Z,9.20
2022-09-28T02:14:37.681Z,9.20
2022-09-28T02:17:35.705Z,9.20
2022-09-28T02:20:39.288Z,9.30
2022-09-28T02:23:38.764Z,9.10
2022-09-28T02:26:38.209Z,9.10
2022-09-28T02:29:28.507Z,9.20
2022-09-28T02:32:19.894Z,9.10
2022-09-28T02:35:30.895Z,9.20
2022-09-28T02:38:30.417Z,9.10
2022-09-28T02:41:21.441Z,9.10
2022-09-28T02:44:51.733Z,9.10
2022-09-28T02:47:54.008Z,9.00
2022-09-28T02:51:31.543Z,9.00
2022-09-28T02:54:38.630Z,9.10
2022-09-28T02:58:11.258Z,9.10
2022-09-28T03:01:34.215Z,9.10
2022-09-28T03:04:44.843Z,9.20
2022-09-28T03:07:54.583Z,9.20
2022-09-28T03:11:01.229Z,9.20
2022-09-28T03:13:55.127Z,9.30
2022-09-28T03:16:50.700Z,9.20
2022-09-28T03:19:42.611Z,9.20
2022-09-28T03:22:32.798Z,9.10
2022-09-28T03:25:20.804Z,9.20
2022-09-28T03:28:14.133Z,9.20
2022-09-28T03:31:12.029Z,9.20
2022-09-28T03:34:03.367Z,9.30
2022-09-28T03:36:53.695Z,9.30
2022-09-28T03:40:05.238Z,9.20
2022-09-28T03:42:52.840Z,9.30
2022-09-28T03:45:40.808Z,9.20
2022-09-28T03:48:46.324Z,9.30
2022-09-28T03:51:34.142Z,9.20
2022-09-28T03:54:22.554Z,9.30
2022-09-28T03:57:14.069Z,9.20
2022-09-28T04:00:17.619Z,9.20
2022-09-28T04:03:08.931Z,9.30
2022-09-28T04:06:03.861Z,9.40
2022-09-28T04:09:11.333Z,9.30
2022-09-28T04:15:32.492Z,9.40
2022-09-28T04:18:38.553Z,9.50
2022-09-28T04:21:37.819Z,9.50
2022-09-28T04:24:26.179Z,9.40
2022-09-28T04:27:39.790Z,9.40
2022-09-28T04:30:27.785Z,9.50
2022-09-28T04:33:29.819Z,9.60
2022-09-28T04:36:20.002Z,9.50
2022-09-28T04:39:09.252Z,9.50
2022-09-28T04:42:13.901Z,9.50
2022-09-28T04:45:02.652Z,9.50
2022-09-28T04:47:50.491Z,9.50
2022-09-28T04:50:38.512Z,9.40
2022-09-28T04:53:27.956Z,9.50
2022-09-28T04:56:17.272Z,9.40
2022-09-28T04:59:07.973Z,9.40
2022-09-28T05:01:57.432Z,9.40
2022-09-28T05:04:59.631Z,9.40
2022-09-28T05:08:19.860Z,9.40
2022-09-28T05:11:12.668Z,9.40
2022-09-28T05:14:08.913Z,9.30
2022-09-28T05:17:12.187Z,9.30
2022-09-28T05:20:18.951Z,9.30
2022-09-28T05:23:19.264Z,9.40
2022-09-28T05:26:17.355Z,9.30
2022-09-28T05:32:43.630Z,9.40
2022-09-28T05:35:32.291Z,9.30
2022-09-28T05:39:07.425Z,9.30
2022-09-28T05:45:54.344Z,9.30
2022-09-28T05:48:45.882Z,9.30
2022-09-28T05:51:43.343Z,9.30
2022-09-28T05:58:56.334Z,9.40
2022-09-28T06:02:05.344Z,9.40
2022-09-28T06:05:04.989Z,9.30
2022-09-28T06:08:06.340Z,9.40
2022-09-28T06:11:17.105Z,9.40
2022-09-28T06:14:13.416Z,9.40
2022-09-28T06:17:07.124Z,9.50
2022-09-28T06:20:05.475Z,9.70
2022-09-28T06:22:54.164Z,9.80
2022-09-28T06:25:45.930Z,9.80
2022-09-28T06:28:42.789Z,9.80
2022-09-28T06:31:35.135Z,10.00
2022-09-28T06:34:25.055Z,10.10
2022-09-28T06:37:15.719Z,10.20
2022-09-28T06:40:08.875Z,10.40
2022-09-28T06:43:22.329Z,10.60
2022-09-28T06:46:12.079Z,10.70
2022-09-28T06:49:05.652Z,10.70
2022-09-28T06:52:12.242Z,10.80
2022-09-28T06:55:14.139Z,11.00
2022-09-28T06:58:04.073Z,10.90
2022-09-28T07:00:52.534Z,11.00
2022-09-28T07:03:45.532Z,11.10
2022-09-28T07:06:40.377Z,11.20
2022-09-28T07:45:26.628Z,12.40
2022-09-28T07:48:17.809Z,13.50
2022-09-28T07:51:09.319Z,13.70
2022-09-28T07:54:01.671Z,13.70
2022-09-28T07:57:07.405Z,13.80
2022-09-28T07:59:55.086Z,13.80
2022-09-28T08:03:05.161Z,13.50
2022-09-28T08:06:03.991Z,13.60
2022-09-28T08:08:53.004Z,13.80
2022-09-28T08:11:44.213Z,14.10
2022-09-28T08:14:35.610Z,14.00
2022-09-28T08:17:33.405Z,14.40
2022-09-28T08:20:40.583Z,14.40
2022-09-28T08:23:33.807Z,14.40
2022-09-28T08:26:22.617Z,14.20
2022-09-28T08:29:17.632Z,14.40
2022-09-28T08:32:08.562Z,14.40
2022-09-28T08:34:56.604Z,14.50
2022-09-28T08:37:53.381Z,14.30
2022-09-28T08:41:05.851Z,14.60
2022-09-28T08:44:14.900Z,14.60
2022-09-28T08:47:29.995Z,14.70
2022-09-28T08:50:24.882Z,14.80
2022-09-28T08:53:41.170Z,14.60
2022-09-28T08:56:47.164Z,15.00
2022-09-28T09:00:10.952Z,14.80
2022-09-28T09:03:05.571Z,14.80
2022-09-28T09:11:32.050Z,14.50
2022-09-28T09:14:57.668Z,15.20
2022-09-28T09:18:26.510Z,15.00
2022-09-28T09:22:10.478Z,15.10
2022-09-28T09:25:11.917Z,15.50
2022-09-28T09:28:38.612Z,15.60
2022-09-28T09:31:43.131Z,15.70
2022-09-28T09:34:48.731Z,15.70
2022-09-28T09:38:09.614Z,15.00
2022-09-28T09:41:19.681Z,15.00
2022-09-28T09:44:50.470Z,15.60
2022-09-28T09:48:14.142Z,15.50
2022-09-28T09:51:30.904Z,15.50
2022-09-28T09:54:40.349Z,15.40
2022-09-28T09:58:03.410Z,14.60
2022-09-28T10:01:09.504Z,14.10
2022-09-28T10:04:02.636Z,14.00
2022-09-28T10:06:57.217Z,13.90
2022-09-28T10:10:05.018Z,14.00
2022-09-28T10:12:58.105Z,14.50
2022-09-28T10:15:55.780Z,14.70
2022-09-28T10:18:44.064Z,15.20
2022-09-28T10:21:32.798Z,14.80
2022-09-28T10:24:38.343Z,14.70
2022-09-28T10:27:44.594Z,14.50
2022-09-28T10:30:44.285Z,14.10
2022-09-28T10:33:40.326Z,14.10
2022-09-28T10:36:56.159Z,14.00
2022-09-28T10:40:20.162Z,13.70
2022-09-28T10:43:24.259Z,13.50
2022-09-28T10:46:17.792Z,13.50
2022-09-28T10:49:20.323Z,13.30
2022-09-28T10:52:43.063Z,13.30
2022-09-28T10:55:41.746Z,13.30
2022-09-28T10:58:52.267Z,13.30
2022-09-28T11:01:43.070Z,13.10
2022-09-28T11:04:43.243Z,13.30
2022-09-28T11:07:45.410Z,13.40
2022-09-28T11:10:37.376Z,13.40
2022-09-28T11:13:29.180Z,13.40
2022-09-28T11:16:23.615Z,13.40
2022-09-28T11:19:23.984Z,13.30
2022-09-28T11:22:42.218Z,13.10
2022-09-28T11:25:31.597Z,13.10
2022-09-28T11:28:27.966Z,13.20
2022-09-28T11:31:28.994Z,13.10
2022-09-28T11:34:54.909Z,13.10
2022-09-28T11:38:02.905Z,13.00
2022-09-28T11:41:09.149Z,13.10
2022-09-28T11:44:34.899Z,13.10
2022-09-28T11:47:39.562Z,13.00
2022-09-28T11:50:42.922Z,13.40
2022-09-28T11:53:52.327Z,13.40
2022-09-28T11:56:51.548Z,13.40
2022-09-28T11:59:58.737Z,14.00
2022-09-28T12:03:14.713Z,14.00
2022-09-28T12:06:05.603Z,13.90
2022-09-28T12:09:15.634Z,14.00
2022-09-28T12:12:30.190Z,13.90
2022-09-28T12:15:59.204Z,14.00
2022-09-28T12:19:07.058Z,14.00
2022-09-28T12:22:45.573Z,14.10
2022-09-28T12:25:53.893Z,14.20
2022-09-28T12:28:50.037Z,15.70
2022-09-28T12:32:03.257Z,16.00
2022-09-28T12:34:54.458Z,15.40
2022-09-28T12:38:09.168Z,15.10
2022-09-28T12:41:39.338Z,14.70
2022-09-28T12:44:44.490Z,14.20
2022-09-28T12:47:45.482Z,14.40
2022-09-28T12:50:57.028Z,14.30
2022-09-28T12:54:05.433Z,14.10
2022-09-28T12:57:06.040Z,14.00
2022-09-28T13:00:06.080Z,14.00
2022-09-28T13:03:11.686Z,14.00
2022-09-28T13:06:20.617Z,14.00
2022-09-28T13:09:31.875Z,14.00
2022-09-28T13:12:51.442Z,14.10
2022-09-28T13:15:53.961Z,14.00
2022-09-28T13:19:00.173Z,14.20
2022-09-28T13:22:23.270Z,14.30
2022-09-28T13:25:22.187Z,14.20
2022-09-28T13:28:16.127Z,14.00
2022-09-28T13:31:04.899Z,14.00
2022-09-28T13:33:53.123Z,13.90
2022-09-28T13:36:56.675Z,13.90
2022-09-28T13:39:48.037Z,13.90
2022-09-28T13:42:53.426Z,13.80
2022-09-28T13:45:53.945Z,13.80
2022-09-28T13:49:01.944Z,13.70
2022-09-28T13:52:21.622Z,13.40
2022-09-28T13:55:52.259Z,12.90
2022-09-28T13:58:54.128Z,12.30
2022-09-28T14:02:09.804Z,12.00
2022-09-28T14:05:05.652Z,11.80
2022-09-28T14:08:18.468Z,11.80
2022-09-28T14:11:30.104Z,11.80
2022-09-28T14:14:33.185Z,11.90
2022-09-28T14:17:25.080Z,11.90
2022-09-28T14:20:30.399Z,12.00
2022-09-28T14:23:40.597Z,12.20
2022-09-28T14:26:36.396Z,12.30
2022-09-28T14:29:34.677Z,12.50
2022-09-28T14:32:37.146Z,12.50
2022-09-28T14:35:40.563Z,12.50
2022-09-28T14:39:04.805Z,12.50
2022-09-28T14:42:16.540Z,12.60
2022-09-28T14:45:06.686Z,12.60
2022-09-28T14:48:16.675Z,12.70
2022-09-28T14:51:30.546Z,12.70
2022-09-28T14:54:22.062Z,12.80
2022-09-28T14:57:19.188Z,12.90
2022-09-28T15:00:21.533Z,13.00
2022-09-28T15:03:16.393Z,12.60
2022-09-28T15:06:04.728Z,12.80
2022-09-28T15:09:02.514Z,12.60
2022-09-28T15:12:04.863Z,12.30
2022-09-28T15:15:29.776Z,12.20
2022-09-28T15:18:49.538Z,12.50
2022-09-28T15:21:53.163Z,12.50
2022-09-28T15:28:40.875Z,12.60
2022-09-28T15:31:38.404Z,12.70
2022-09-28T15:35:19.439Z,12.80
2022-09-28T15:38:23.774Z,12.80
2022-09-28T15:50:28.643Z,13.00
2022-09-28T15:53:32.968Z,13.10
2022-09-28T16:04:32.816Z,12.60
2022-09-28T16:10:56.129Z,12.50
2022-09-28T16:15:15.357Z,12.60
2022-09-28T16:18:50.511Z,12.50
2022-09-28T16:35:04.705Z,12.50
2022-09-28T16:42:50.687Z,12.30
2022-09-28T16:53:36.722Z,11.90
2022-09-28T16:56:58.030Z,12.00
2022-09-28T16:59:45.226Z,11.80
2022-09-28T17:02:46.410Z,11.80
2022-09-28T17:05:34.351Z,11.70
2022-09-28T17:08:23.759Z,11.70
2022-09-28T17:11:20.472Z,11.70
2022-09-28T17:32:22.719Z,11.50
2022-09-28T17:35:23.586Z,11.30
2022-09-28T17:38:13.608Z,11.40
2022-09-28T17:41:01.168Z,11.30
2022-09-28T17:43:49.397Z,11.30
2022-09-28T17:46:39.462Z,11.30
2022-09-28T17:49:26.992Z,11.10
2022-09-28T17:52:14.503Z,11.10
2022-09-28T17:55:02.034Z,11.20
2022-09-28T17:57:50.496Z,11.20
2022-09-28T18:00:38.220Z,11.20
2022-09-28T18:03:26.042Z,11.10
2022-09-28T18:06:16.226Z,11.20
2022-09-28T18:09:04.481Z,11.20
2022-09-28T18:12:00.533Z,11.30
2022-09-28T18:14:47.687Z,11.10
2022-09-28T18:17:35.148Z,11.20
2022-09-28T18:33:41.293Z,11.20
2022-09-28T18:47:30.276Z,11.20
2022-09-28T18:51:45.139Z,11.20
2022-09-28T18:54:54.542Z,11.10
2022-09-28T18:58:14.836Z,11.10
2022-09-28T19:13:43.435Z,10.90
2022-09-28T19:16:34.246Z,11.00
2022-09-28T19:19:22.005Z,11.00
2022-09-28T19:22:09.223Z,11.00
2022-09-28T19:24:56.964Z,11.00
2022-09-28T19:27:44.481Z,11.00
2022-09-28T19:30:31.614Z,11.00
2022-09-28T19:33:20.329Z,11.00
2022-09-28T19:36:12.530Z,10.90
2022-09-28T19:39:03.728Z,11.00
2022-09-28T19:41:51.468Z,11.10
2022-09-28T19:56:53.027Z,10.80
2022-09-28T19:59:40.880Z,10.70
2022-09-28T20:02:28.422Z,10.70
2022-09-28T20:05:16.595Z,10.70
2022-09-28T20:10:59.594Z,10.60
2022-09-28T20:13:48.680Z,10.60
2022-09-28T20:16:37.539Z,10.60
2022-09-28T20:19:25.042Z,10.60
2022-09-28T20:22:12.523Z,10.60
2022-09-28T20:25:01.760Z,10.50
2022-09-28T20:27:49.886Z,10.30
2022-09-28T20:30:37.308Z,10.20
2022-09-28T20:33:28.851Z,10.30
2022-09-28T20:36:21.722Z,10.40
2022-09-28T20:39:10.378Z,10.30
2022-09-28T20:41:57.857Z,10.20
2022-09-28T20:44:45.384Z,10.30
2022-09-28T20:47:32.495Z,10.40
2022-09-28T20:50:19.988Z,10.40
2022-09-28T20:53:07.143Z,10.30
2022-09-28T20:56:03.020Z,10.40
2022-09-28T20:58:51.506Z,10.30
2022-09-28T21:01:38.921Z,10.20
2022-09-28T21:04:27.157Z,10.20
2022-09-28T21:07:52.425Z,10.20
2022-09-28T21:10:44.804Z,10.10
2022-09-28T21:13:41.812Z,10.10
2022-09-28T21:16:58.525Z,10.00
2022-09-28T21:19:50.723Z,10.00
2022-09-28T21:26:38.905Z,10.00
2022-09-28T21:36:55.591Z,10.00
2022-09-28T21:39:56.713Z,10.00
2022-09-28T21:46:17.723Z,9.80
2022-09-28T21:49:43.912Z,9.90
2022-09-28T21:56:23.817Z,9.90
2022-09-28T22:06:37.481Z,9.80
2022-09-28T22:13:00.580Z,9.80
2022-09-28T22:16:07.705Z,9.80
2022-09-28T22:18:55.467Z,9.70
2022-09-28T22:21:42.771Z,9.80
2022-09-28T22:24:29.886Z,9.80
2022-09-28T22:27:17.394Z,9.70
2022-09-28T22:30:07.951Z,9.70
2022-09-28T22:33:59.124Z,9.70
2022-09-28T22:47:31.848Z,9.50
2022-09-28T22:50:33.311Z,9.50
2022-09-28T22:54:11.364Z,9.50
2022-09-28T22:57:16.331Z,9.50
2022-09-28T23:00:16.286Z,9.40
2022-09-28T23:11:45.336Z,9.50
2022-09-28T23:14:52.210Z,9.40
2022-09-28T23:18:15.177Z,9.50
2022-09-28T23:24:47.046Z,9.50
2022-09-28T23:28:12.912Z,9.40
2022-09-28T23:34:55.109Z,9.30
2022-09-28T23:38:20.164Z,9.30
2022-09-28T23:45:41.019Z,9.20
2022-09-28T23:51:55.280Z,9.20
2022-09-28T23:55:06.136Z,9.20
2022-09-28T23:57:55.740Z,9.20
